sensor_id;sensor_type;location;lat;lon;timestamp;P1;P4;P2;P0;N10;N4;N25;N1;N05;TS
71550;SPS30;59367;48.414;9.872;2023-08-30T00:00:08;8.862762451;;8.862762451;;;;;;;
71550;SPS30;59367;48.414;9.872;2023-08-30T00:01:14;7.873120308;;7.873120308;;;;;;;
71550;SPS30;59367;48.414;9.872;2023-08-30T00:02:20;7.044273376;;7.044273376;;;;;;;
71550;SPS30;59367;48.414;9.872;2023-08-30T00:03:26;8.554542542;;8.554542542;;;;;;;
71550;SPS30;59367;48.414;9.872;2023-08-30T00:04:32;8.262292862;;8.262292862;;;;;;;
71550;SPS30;59367;48.414;9.872;2023-08-30T00:05:41;8.293702126;;8.293702126;;;;;;;
71550;SPS30;59367;48.414;9.872;2023-08-30T00:06:46;8.590557098;;8.590557098;;;;;;;
71550;SPS30;59367;48.414;9.872;2023-08-30T00:07:53;9.874782562;;9.874782562;;;;;;;
71550;SPS30;59367;48.414;9.872;2023-08-30T00:08:59;8.61899662;;8.61899662;;;;;;;
71550;SPS30;59367;48.414;9.872;2023-08-30T00:10:05;7.925593853;;7.925593853;;;;;;;
71550;SPS30;59367;48.414;9.872;2023-08-30T00:11:13;7.470827579;;7.470827579;;;;;;;
71550;SPS30;59367;48.414;9.872;2023-08-30T00:12:19;8.368262291;;8.368262291;;;;;;;
71550;SPS30;59367;48.414;9.872;2023-08-30T00:13:25;8.63044548;;8.63044548;;;;;;;
71550;SPS30;59367;48.414;9.872;2023-08-30T00:14:31;8.021123886;;8.021123886;;;;;;;
71550;SPS30;59367;48.414;9.872;2023-08-30T00:15:37;8.21476841;;8.21476841;;;;;;;
71550;SPS30;59367;48.414;9.872;2023-08-30T00:16:43;8.448670387;;8.448670387;;;;;;;
71550;SPS30;59367;48.414;9.872;2023-08-30T00:17:49;9.02888298;;9.02888298;;;;;;;
71550;SPS30;59367;48.414;9.872;2023-08-30T00:18:55;9.0869627;;9.0869627;;;;;;;
71550;SPS30;59367;48.414;9.872;2023-08-30T00:20:02;8.854822159;;8.854822159;;;;;;;
71550;SPS30;59367;48.414;9.872;2023-08-30T00:21:08;8.699459076;;8.699459076;;;;;;;
71550;SPS30;59367;48.414;9.872;2023-08-30T00:22:14;8.283254623;;8.283254623;;;;;;;
71550;SPS30;59367;48.414;9.872;2023-08-30T00:23:20;8.696315765;;8.696315765;;;;;;;
71550;SPS30;59367;48.414;9.872;2023-08-30T00:24:26;8.893642426;;8.893642426;;;;;;;
71550;SPS30;59367;48.414;9.872;2023-08-30T00:25:31;8.914112091;;8.914112091;;;;;;;
71550;SPS30;59367;48.414;9.872;2023-08-30T00:26:37;8.88579464;;8.88579464;;;;;;;
71550;SPS30;59367;48.414;9.872;2023-08-30T00:27:43;8.703300476;;8.703300476;;;;;;;
71550;SPS30;59367;48.414;9.872;2023-08-30T00:28:49;7.632959843;;7.632959843;;;;;;;
71550;SPS30;59367;48.414;9.872;2023-08-30T00:29:55;8.710990906;;8.710990906;;;;;;;
71550;SPS30;59367;48.414;9.872;2023-08-30T00:31:01;8.37006855;;8.37006855;;;;;;;
71550;SPS30;59367;48.414;9.872;2023-08-30T00:32:07;7.970706463;;7.970706463;;;;;;;
71550;SPS30;59367;48.414;9.872;2023-08-30T00:33:13;7.117360592;;7.117360592;;;;;;;
71550;SPS30;59367;48.414;9.872;2023-08-30T00:34:19;8.23607254;;8.23607254;;;;;;;
71550;SPS30;59367;48.414;9.872;2023-08-30T00:35:25;9.535628319;;9.535628319;;;;;;;
71550;SPS30;59367;48.414;9.872;2023-08-30T00:36:31;7.713788986;;7.713788986;;;;;;;
71550;SPS30;59367;48.414;9.872;2023-08-30T00:37:37;7.871520042;;7.871520042;;;;;;;
71550;SPS30;59367;48.414;9.872;2023-08-30T00:38:43;7.967843533;;7.967843533;;;;;;;
71550;SPS30;59367;48.414;9.872;2023-08-30T00:39:49;8.22561264;;8.22561264;;;;;;;
71550;SPS30;59367;48.414;9.872;2023-08-30T00:40:55;8.149974823;;8.149974823;;;;;;;
71550;SPS30;59367;48.414;9.872;2023-08-30T00:42:02;8.647626877;;8.647626877;;;;;;;
71550;SPS30;59367;48.414;9.872;2023-08-30T00:43:09;8.555082321;;8.555082321;;;;;;;
71550;SPS30;59367;48.414;9.872;2023-08-30T00:44:14;8.784641266;;8.784641266;;;;;;;
71550;SPS30;59367;48.414;9.872;2023-08-30T00:45:20;8.107266426;;8.107266426;;;;;;;
71550;SPS30;59367;48.414;9.872;2023-08-30T00:46:26;10.57005882;;10.57005882;;;;;;;
71550;SPS30;59367;48.414;9.872;2023-08-30T00:47:33;9.470965385;;9.470965385;;;;;;;
71550;SPS30;59367;48.414;9.872;2023-08-30T00:48:39;10.14951897;;10.14951897;;;;;;;
71550;SPS30;59367;48.414;9.872;2023-08-30T00:49:46;9.981919289;;9.981919289;;;;;;;
71550;SPS30;59367;48.414;9.872;2023-08-30T00:50:52;10.34817696;;10.34793186;;;;;;;
71550;SPS30;59367;48.414;9.872;2023-08-30T00:51:58;10.38112926;;10.38112926;;;;;;;
71550;SPS30;59367;48.414;9.872;2023-08-30T00:53:05;10.30787468;;10.30787468;;;;;;;
71550;SPS30;59367;48.414;9.872;2023-08-30T00:54:13;10.01492596;;10.01492596;;;;;;;
71550;SPS30;59367;48.414;9.872;2023-08-30T00:55:19;10.43741512;;10.43741512;;;;;;;
71550;SPS30;59367;48.414;9.872;2023-08-30T00:56:25;8.828317642;;8.828317642;;;;;;;
71550;SPS30;59367;48.414;9.872;2023-08-30T00:57:31;8.836728096;;8.836728096;;;;;;;
71550;SPS30;59367;48.414;9.872;2023-08-30T00:58:37;8.817499161;;8.817499161;;;;;;;
71550;SPS30;59367;48.414;9.872;2023-08-30T00:59:44;8.264071465;;8.264071465;;;;;;;
71550;SPS30;59367;48.414;9.872;2023-08-30T01:00:50;8.91740036;;8.91740036;;;;;;;
71550;SPS30;59367;48.414;9.872;2023-08-30T01:01:56;9.082649231;;9.082649231;;;;;;;
71550;SPS30;59367;48.414;9.872;2023-08-30T01:03:03;8.79970932;;8.79970932;;;;;;;
71550;SPS30;59367;48.414;9.872;2023-08-30T01:04:10;8.834231377;;8.834231377;;;;;;;
71550;SPS30;59367;48.414;9.872;2023-08-30T01:05:16;8.169436455;;8.169436455;;;;;;;
71550;SPS30;59367;48.414;9.872;2023-08-30T01:06:23;7.456141949;;7.456141949;;;;;;;
71550;SPS30;59367;48.414;9.872;2023-08-30T01:07:29;7.263788223;;7.263788223;;;;;;;
71550;SPS30;59367;48.414;9.872;2023-08-30T01:08:35;6.788052082;;6.788052082;;;;;;;
71550;SPS30;59367;48.414;9.872;2023-08-30T01:09:41;7.580047131;;7.580047131;;;;;;;
71550;SPS30;59367;48.414;9.872;2023-08-30T01:10:52;7.635915279;;7.635915279;;;;;;;
71550;SPS30;59367;48.414;9.872;2023-08-30T01:12:04;7.037535667;;7.037535667;;;;;;;
71550;SPS30;59367;48.414;9.872;2023-08-30T01:13:18;7.211962223;;7.211962223;;;;;;;
71550;SPS30;59367;48.414;9.872;2023-08-30T01:14:29;8.214718819;;8.214718819;;;;;;;
71550;SPS30;59367;48.414;9.872;2023-08-30T01:15:37;9.089495659;;9.089495659;;;;;;;
71550;SPS30;59367;48.414;9.872;2023-08-30T01:16:45;9.197263718;;9.197263718;;;;;;;
71550;SPS30;59367;48.414;9.872;2023-08-30T01:17:51;9.274547577;;9.274547577;;;;;;;
71550;SPS30;59367;48.414;9.872;2023-08-30T01:18:58;7.79772377;;7.79772377;;;;;;;
71550;SPS30;59367;48.414;9.872;2023-08-30T01:20:08;8.783402443;;8.783402443;;;;;;;
71550;SPS30;59367;48.414;9.872;2023-08-30T01:21:19;10.07558155;;10.07558155;;;;;;;
71550;SPS30;59367;48.414;9.872;2023-08-30T01:22:38;8.822330475;;8.822330475;;;;;;;
71550;SPS30;59367;48.414;9.872;2023-08-30T01:23:49;9.642503738;;9.642503738;;;;;;;
71550;SPS30;59367;48.414;9.872;2023-08-30T01:25:05;9.154075623;;9.154075623;;;;;;;
71550;SPS30;59367;48.414;9.872;2023-08-30T01:26:21;9.612436295;;9.612436295;;;;;;;
71550;SPS30;59367;48.414;9.872;2023-08-30T01:27:39;10.16239643;;10.16239643;;;;;;;
71550;SPS30;59367;48.414;9.872;2023-08-30T01:28:45;9.770285606;;9.770285606;;;;;;;
71550;SPS30;59367;48.414;9.872;2023-08-30T01:29:53;9.272107124;;9.272107124;;;;;;;
71550;SPS30;59367;48.414;9.872;2023-08-30T01:31:00;9.18453598;;9.18453598;;;;;;;
71550;SPS30;59367;48.414;9.872;2023-08-30T01:32:07;8.353592873;;8.353592873;;;;;;;
71550;SPS30;59367;48.414;9.872;2023-08-30T01:33:14;9.442185402;;9.442185402;;;;;;;
71550;SPS30;59367;48.414;9.872;2023-08-30T01:34:21;9.175078392;;9.175078392;;;;;;;
71550;SPS30;59367;48.414;9.872;2023-08-30T01:35:27;9.757670403;;9.725421906;;;;;;;
71550;SPS30;59367;48.414;9.872;2023-08-30T01:36:35;9.675017357;;9.511772156;;;;;;;
71550;SPS30;59367;48.414;9.872;2023-08-30T01:37:43;9.315279961;;9.315279961;;;;;;;
71550;SPS30;59367;48.414;9.872;2023-08-30T01:38:49;9.688336372;;9.688336372;;;;;;;
71550;SPS30;59367;48.414;9.872;2023-08-30T01:39:56;8.482270241;;8.482270241;;;;;;;
71550;SPS30;59367;48.414;9.872;2023-08-30T01:41:04;8.402731895;;8.402731895;;;;;;;
71550;SPS30;59367;48.414;9.872;2023-08-30T01:42:10;8.359382629;;8.359382629;;;;;;;
71550;SPS30;59367;48.414;9.872;2023-08-30T01:43:17;9.963673592;;9.963539124;;;;;;;
71550;SPS30;59367;48.414;9.872;2023-08-30T01:44:24;9.180150032;;9.180150032;;;;;;;
71550;SPS30;59367;48.414;9.872;2023-08-30T01:45:31;8.237449646;;8.237449646;;;;;;;
71550;SPS30;59367;48.414;9.872;2023-08-30T01:46:37;9.511348724;;9.511348724;;;;;;;
71550;SPS30;59367;48.414;9.872;2023-08-30T01:47:44;9.981667519;;9.981667519;;;;;;;
71550;SPS30;59367;48.414;9.872;2023-08-30T01:48:52;10.50504875;;10.50504875;;;;;;;
71550;SPS30;59367;48.414;9.872;2023-08-30T01:49:59;9.655164719;;9.655164719;;;;;;;
71550;SPS30;59367;48.414;9.872;2023-08-30T01:51:05;10.08526897;;10.08526897;;;;;;;
71550;SPS30;59367;48.414;9.872;2023-08-30T01:52:12;9.892594337;;9.892594337;;;;;;;
71550;SPS30;59367;48.414;9.872;2023-08-30T01:53:19;9.773662567;;9.773662567;;;;;;;
71550;SPS30;59367;48.414;9.872;2023-08-30T01:54:25;10.68058205;;10.68058205;;;;;;;
71550;SPS30;59367;48.414;9.872;2023-08-30T01:55:33;9.833127022;;9.768769264;;;;;;;
71550;SPS30;59367;48.414;9.872;2023-08-30T01:56:40;10.67272758;;10.67272758;;;;;;;
71550;SPS30;59367;48.414;9.872;2023-08-30T01:57:46;9.87342453;;9.87342453;;;;;;;
71550;SPS30;59367;48.414;9.872;2023-08-30T01:58:52;9.701750755;;9.701750755;;;;;;;
71550;SPS30;59367;48.414;9.872;2023-08-30T01:59:57;9.951019287;;9.951019287;;;;;;;
71550;SPS30;59367;48.414;9.872;2023-08-30T02:01:03;9.574978828;;9.574978828;;;;;;;
71550;SPS30;59367;48.414;9.872;2023-08-30T02:02:09;8.807167053;;8.807167053;;;;;;;
71550;SPS30;59367;48.414;9.872;2023-08-30T02:03:15;8.036799431;;8.036799431;;;;;;;
71550;SPS30;59367;48.414;9.872;2023-08-30T02:04:21;8.113805771;;8.113805771;;;;;;;
71550;SPS30;59367;48.414;9.872;2023-08-30T02:05:27;7.799450874;;7.799450874;;;;;;;
71550;SPS30;59367;48.414;9.872;2023-08-30T02:06:34;8.314996719;;8.314996719;;;;;;;
71550;SPS30;59367;48.414;9.872;2023-08-30T02:07:49;7.708156586;;7.708156586;;;;;;;
71550;SPS30;59367;48.414;9.872;2023-08-30T02:09:01;7.821056843;;7.821056843;;;;;;;
71550;SPS30;59367;48.414;9.872;2023-08-30T02:10:12;8.214325905;;8.214325905;;;;;;;
71550;SPS30;59367;48.414;9.872;2023-08-30T02:11:26;7.89070034;;7.89070034;;;;;;;
71550;SPS30;59367;48.414;9.872;2023-08-30T02:12:37;7.551584244;;7.551584244;;;;;;;
71550;SPS30;59367;48.414;9.872;2023-08-30T02:13:49;7.87270689;;7.87270689;;;;;;;
71550;SPS30;59367;48.414;9.872;2023-08-30T02:14:57;7.979250908;;7.924153328;;;;;;;
71550;SPS30;59367;48.414;9.872;2023-08-30T02:16:04;7.935993195;;7.935993195;;;;;;;
71550;SPS30;59367;48.414;9.872;2023-08-30T02:17:11;8.192725182;;8.192725182;;;;;;;
71550;SPS30;59367;48.414;9.872;2023-08-30T02:18:18;8.270688057;;8.270688057;;;;;;;
71550;SPS30;59367;48.414;9.872;2023-08-30T02:19:24;8.357370377;;8.357370377;;;;;;;
71550;SPS30;59367;48.414;9.872;2023-08-30T02:20:31;7.69563055;;7.69563055;;;;;;;
71550;SPS30;59367;48.414;9.872;2023-08-30T02:21:39;7.389224529;;7.389224529;;;;;;;
71550;SPS30;59367;48.414;9.872;2023-08-30T02:22:45;8.420039177;;8.10103035;;;;;;;
71550;SPS30;59367;48.414;9.872;2023-08-30T02:23:51;9.116705894;;9.115837097;;;;;;;
71550;SPS30;59367;48.414;9.872;2023-08-30T02:24:57;7.70471859;;7.70471859;;;;;;;
71550;SPS30;59367;48.414;9.872;2023-08-30T02:26:03;8.034304619;;8.034304619;;;;;;;
71550;SPS30;59367;48.414;9.872;2023-08-30T02:27:09;7.463817596;;7.463817596;;;;;;;
71550;SPS30;59367;48.414;9.872;2023-08-30T02:28:15;7.854263783;;7.854263783;;;;;;;
71550;SPS30;59367;48.414;9.872;2023-08-30T02:29:21;7.979297638;;7.979297638;;;;;;;
71550;SPS30;59367;48.414;9.872;2023-08-30T02:30:26;8.234585762;;8.234585762;;;;;;;
71550;SPS30;59367;48.414;9.872;2023-08-30T02:31:32;7.999558926;;7.999558926;;;;;;;
71550;SPS30;59367;48.414;9.872;2023-08-30T02:32:38;8.365552902;;8.365552902;;;;;;;
71550;SPS30;59367;48.414;9.872;2023-08-30T02:33:44;8.350475311;;8.350475311;;;;;;;
71550;SPS30;59367;48.414;9.872;2023-08-30T02:34:51;7.461500645;;7.461500645;;;;;;;
71550;SPS30;59367;48.414;9.872;2023-08-30T02:35:58;8.012407303;;8.012407303;;;;;;;
71550;SPS30;59367;48.414;9.872;2023-08-30T02:37:04;7.83245039;;7.83245039;;;;;;;
71550;SPS30;59367;48.414;9.872;2023-08-30T02:38:10;7.468590736;;7.468590736;;;;;;;
71550;SPS30;59367;48.414;9.872;2023-08-30T02:39:16;7.756012917;;7.756012917;;;;;;;
71550;SPS30;59367;48.414;9.872;2023-08-30T02:40:22;8.64930439;;8.64930439;;;;;;;
71550;SPS30;59367;48.414;9.872;2023-08-30T02:41:28;8.429210663;;8.429210663;;;;;;;
71550;SPS30;59367;48.414;9.872;2023-08-30T02:42:34;8.44403553;;8.44403553;;;;;;;
71550;SPS30;59367;48.414;9.872;2023-08-30T02:43:39;7.922692299;;7.922692299;;;;;;;
71550;SPS30;59367;48.414;9.872;2023-08-30T02:44:45;8.296352386;;8.296352386;;;;;;;
71550;SPS30;59367;48.414;9.872;2023-08-30T02:45:51;8.539896011;;8.539896011;;;;;;;
71550;SPS30;59367;48.414;9.872;2023-08-30T02:46:57;7.589679718;;7.589679718;;;;;;;
71550;SPS30;59367;48.414;9.872;2023-08-30T02:48:03;8.206507683;;8.206507683;;;;;;;
71550;SPS30;59367;48.414;9.872;2023-08-30T02:49:09;7.472870827;;7.472870827;;;;;;;
71550;SPS30;59367;48.414;9.872;2023-08-30T02:50:15;8.788301468;;8.788301468;;;;;;;
71550;SPS30;59367;48.414;9.872;2023-08-30T02:51:21;9.660972595;;9.660972595;;;;;;;
71550;SPS30;59367;48.414;9.872;2023-08-30T02:52:27;8.982417107;;8.982417107;;;;;;;
71550;SPS30;59367;48.414;9.872;2023-08-30T02:53:32;9.617509842;;9.617509842;;;;;;;
71550;SPS30;59367;48.414;9.872;2023-08-30T02:54:38;10.98379612;;10.90516567;;;;;;;
71550;SPS30;59367;48.414;9.872;2023-08-30T02:55:45;10.56415081;;10.56415081;;;;;;;
71550;SPS30;59367;48.414;9.872;2023-08-30T02:56:52;10.58717442;;10.58717442;;;;;;;
71550;SPS30;59367;48.414;9.872;2023-08-30T02:57:57;11.81500912;;11.81500912;;;;;;;
71550;SPS30;59367;48.414;9.872;2023-08-30T02:59:03;12.18331718;;12.18200779;;;;;;;
71550;SPS30;59367;48.414;9.872;2023-08-30T03:00:10;12.56882286;;12.56476498;;;;;;;
71550;SPS30;59367;48.414;9.872;2023-08-30T03:01:16;10.91604614;;10.91589928;;;;;;;
71550;SPS30;59367;48.414;9.872;2023-08-30T03:02:22;12.06472588;;12.06470299;;;;;;;
71550;SPS30;59367;48.414;9.872;2023-08-30T03:03:28;12.59051037;;12.59051037;;;;;;;
71550;SPS30;59367;48.414;9.872;2023-08-30T03:04:34;13.27360058;;13.27360058;;;;;;;
71550;SPS30;59367;48.414;9.872;2023-08-30T03:05:40;11.60961819;;11.60961819;;;;;;;
71550;SPS30;59367;48.414;9.872;2023-08-30T03:06:45;11.94840908;;11.94840908;;;;;;;
71550;SPS30;59367;48.414;9.872;2023-08-30T03:07:52;11.37402534;;11.37402534;;;;;;;
71550;SPS30;59367;48.414;9.872;2023-08-30T03:08:58;11.07822609;;11.07822609;;;;;;;
71550;SPS30;59367;48.414;9.872;2023-08-30T03:10:04;11.3072834;;11.3072834;;;;;;;
71550;SPS30;59367;48.414;9.872;2023-08-30T03:11:12;10.46682549;;10.46681213;;;;;;;
71550;SPS30;59367;48.414;9.872;2023-08-30T03:12:18;10.70824528;;10.70824528;;;;;;;
71550;SPS30;59367;48.414;9.872;2023-08-30T03:13:24;12.63763809;;12.55882359;;;;;;;
71550;SPS30;59367;48.414;9.872;2023-08-30T03:14:30;10.96618843;;10.96618843;;;;;;;
71550;SPS30;59367;48.414;9.872;2023-08-30T03:15:35;12.72075558;;12.72075558;;;;;;;
71550;SPS30;59367;48.414;9.872;2023-08-30T03:16:41;10.76306534;;10.76306534;;;;;;;
71550;SPS30;59367;48.414;9.872;2023-08-30T03:17:47;11.36061764;;11.36061764;;;;;;;
71550;SPS30;59367;48.414;9.872;2023-08-30T03:18:53;11.1783905;;11.1783905;;;;;;;
71550;SPS30;59367;48.414;9.872;2023-08-30T03:19:59;10.80050659;;10.80050659;;;;;;;
71550;SPS30;59367;48.414;9.872;2023-08-30T03:21:05;10.78242302;;10.78242302;;;;;;;
71550;SPS30;59367;48.414;9.872;2023-08-30T03:22:11;10.93567085;;10.93567085;;;;;;;
71550;SPS30;59367;48.414;9.872;2023-08-30T03:23:17;10.49123192;;10.49123192;;;;;;;
71550;SPS30;59367;48.414;9.872;2023-08-30T03:24:22;9.685230255;;9.685230255;;;;;;;
71550;SPS30;59367;48.414;9.872;2023-08-30T03:25:30;10.2088871;;10.2088871;;;;;;;
71550;SPS30;59367;48.414;9.872;2023-08-30T03:26:36;10.83592129;;10.80061436;;;;;;;
71550;SPS30;59367;48.414;9.872;2023-08-30T03:27:43;10.14764786;;10.14764786;;;;;;;
71550;SPS30;59367;48.414;9.872;2023-08-30T03:28:49;10.21271706;;10.21150875;;;;;;;
71550;SPS30;59367;48.414;9.872;2023-08-30T03:29:55;10.09684849;;10.09684849;;;;;;;
71550;SPS30;59367;48.414;9.872;2023-08-30T03:31:01;10.74034214;;10.74034214;;;;;;;
71550;SPS30;59367;48.414;9.872;2023-08-30T03:32:17;10.2178278;;10.2178278;;;;;;;
71550;SPS30;59367;48.414;9.872;2023-08-30T03:33:23;12.05485535;;11.99224758;;;;;;;
71550;SPS30;59367;48.414;9.872;2023-08-30T03:34:29;10.7920866;;10.6811676;;;;;;;
71550;SPS30;59367;48.414;9.872;2023-08-30T03:35:36;10.7384758;;10.73842812;;;;;;;
71550;SPS30;59367;48.414;9.872;2023-08-30T03:36:41;10.12321854;;10.12320518;;;;;;;
71550;SPS30;59367;48.414;9.872;2023-08-30T03:37:47;9.65622139;;9.65622139;;;;;;;
71550;SPS30;59367;48.414;9.872;2023-08-30T03:38:53;11.48253345;;11.46966934;;;;;;;
71550;SPS30;59367;48.414;9.872;2023-08-30T03:39:59;10.71357155;;10.67564869;;;;;;;
71550;SPS30;59367;48.414;9.872;2023-08-30T03:41:05;10.81235886;;10.81235886;;;;;;;
71550;SPS30;59367;48.414;9.872;2023-08-30T03:42:12;10.6899519;;10.6899519;;;;;;;
71550;SPS30;59367;48.414;9.872;2023-08-30T03:43:18;10.96165466;;10.96165466;;;;;;;
71550;SPS30;59367;48.414;9.872;2023-08-30T03:44:25;10.40851116;;10.40851116;;;;;;;
71550;SPS30;59367;48.414;9.872;2023-08-30T03:45:30;10.20571709;;10.20571709;;;;;;;
71550;SPS30;59367;48.414;9.872;2023-08-30T03:46:40;10.51935387;;10.51935387;;;;;;;
71550;SPS30;59367;48.414;9.872;2023-08-30T03:47:46;11.01393795;;11.01393795;;;;;;;
71550;SPS30;59367;48.414;9.872;2023-08-30T03:48:52;10.42392731;;10.42356682;;;;;;;
71550;SPS30;59367;48.414;9.872;2023-08-30T03:49:57;9.808738708;;9.808738708;;;;;;;
71550;SPS30;59367;48.414;9.872;2023-08-30T03:51:03;10.74011803;;10.74011803;;;;;;;
71550;SPS30;59367;48.414;9.872;2023-08-30T03:52:09;10.23960114;;10.23960114;;;;;;;
71550;SPS30;59367;48.414;9.872;2023-08-30T03:53:15;10.71759033;;10.71759033;;;;;;;
71550;SPS30;59367;48.414;9.872;2023-08-30T03:54:21;11.95963001;;11.90864277;;;;;;;
71550;SPS30;59367;48.414;9.872;2023-08-30T03:55:27;12.3486824;;12.12114811;;;;;;;
71550;SPS30;59367;48.414;9.872;2023-08-30T03:56:33;12.1311636;;12.11980534;;;;;;;
71550;SPS30;59367;48.414;9.872;2023-08-30T03:57:39;12.51316929;;12.49806023;;;;;;;
71550;SPS30;59367;48.414;9.872;2023-08-30T03:58:44;13.25819302;;13.12409401;;;;;;;
71550;SPS30;59367;48.414;9.872;2023-08-30T03:59:50;12.22414017;;11.84610367;;;;;;;
71550;SPS30;59367;48.414;9.872;2023-08-30T04:00:56;12.02531815;;12.02359581;;;;;;;
71550;SPS30;59367;48.414;9.872;2023-08-30T04:02:02;11.33476639;;11.33476639;;;;;;;
71550;SPS30;59367;48.414;9.872;2023-08-30T04:03:09;12.6028738;;12.5745821;;;;;;;
71550;SPS30;59367;48.414;9.872;2023-08-30T04:04:16;12.63812256;;12.63812256;;;;;;;
71550;SPS30;59367;48.414;9.872;2023-08-30T04:05:22;12.92074871;;12.92074871;;;;;;;
71550;SPS30;59367;48.414;9.872;2023-08-30T04:06:28;13.98730659;;13.98730659;;;;;;;
71550;SPS30;59367;48.414;9.872;2023-08-30T04:07:35;12.40309048;;12.40309048;;;;;;;
71550;SPS30;59367;48.414;9.872;2023-08-30T04:08:41;14.21789837;;14.21322727;;;;;;;
71550;SPS30;59367;48.414;9.872;2023-08-30T04:09:46;12.30672169;;12.30672169;;;;;;;
71550;SPS30;59367;48.414;9.872;2023-08-30T04:10:54;12.73268986;;12.73268986;;;;;;;
71550;SPS30;59367;48.414;9.872;2023-08-30T04:12:00;12.62186718;;12.33456421;;;;;;;
71550;SPS30;59367;48.414;9.872;2023-08-30T04:13:06;13.44523239;;13.44523239;;;;;;;
71550;SPS30;59367;48.414;9.872;2023-08-30T04:14:12;12.48127747;;12.48127747;;;;;;;
71550;SPS30;59367;48.414;9.872;2023-08-30T04:15:18;11.58663082;;11.58663082;;;;;;;
71550;SPS30;59367;48.414;9.872;2023-08-30T04:16:23;11.73133564;;11.73133564;;;;;;;
71550;SPS30;59367;48.414;9.872;2023-08-30T04:17:29;12.70437717;;12.70437717;;;;;;;
71550;SPS30;59367;48.414;9.872;2023-08-30T04:18:35;11.92496967;;11.92496967;;;;;;;
71550;SPS30;59367;48.414;9.872;2023-08-30T04:19:41;10.24782181;;10.24229622;;;;;;;
71550;SPS30;59367;48.414;9.872;2023-08-30T04:20:47;11.9579525;;11.75875092;;;;;;;
71550;SPS30;59367;48.414;9.872;2023-08-30T04:21:53;10.72645664;;10.72644234;;;;;;;
71550;SPS30;59367;48.414;9.872;2023-08-30T04:22:59;11.1714325;;11.17014694;;;;;;;
71550;SPS30;59367;48.414;9.872;2023-08-30T04:24:05;11.78910542;;11.78910542;;;;;;;
71550;SPS30;59367;48.414;9.872;2023-08-30T04:25:11;10.91790867;;10.91790867;;;;;;;
71550;SPS30;59367;48.414;9.872;2023-08-30T04:26:17;10.96436787;;10.96436787;;;;;;;
71550;SPS30;59367;48.414;9.872;2023-08-30T04:27:23;11.25975418;;11.25975418;;;;;;;
71550;SPS30;59367;48.414;9.872;2023-08-30T04:28:29;12.06666279;;12.06666279;;;;;;;
71550;SPS30;59367;48.414;9.872;2023-08-30T04:29:34;11.39964771;;11.39964771;;;;;;;
71550;SPS30;59367;48.414;9.872;2023-08-30T04:30:40;11.44603825;;11.44603825;;;;;;;
71550;SPS30;59367;48.414;9.872;2023-08-30T04:31:46;11.05800629;;11.05800629;;;;;;;
71550;SPS30;59367;48.414;9.872;2023-08-30T04:32:52;10.97111988;;10.97111988;;;;;;;
71550;SPS30;59367;48.414;9.872;2023-08-30T04:33:58;10.77832317;;10.77832317;;;;;;;
71550;SPS30;59367;48.414;9.872;2023-08-30T04:35:04;10.88065529;;10.88065529;;;;;;;
71550;SPS30;59367;48.414;9.872;2023-08-30T04:36:10;10.50179482;;10.48789978;;;;;;;
71550;SPS30;59367;48.414;9.872;2023-08-30T04:37:16;9.972958565;;9.972958565;;;;;;;
71550;SPS30;59367;48.414;9.872;2023-08-30T04:38:22;10.59786606;;10.59786606;;;;;;;
71550;SPS30;59367;48.414;9.872;2023-08-30T04:39:28;10.10770512;;10.10770512;;;;;;;
71550;SPS30;59367;48.414;9.872;2023-08-30T04:40:33;9.564458847;;9.564458847;;;;;;;
71550;SPS30;59367;48.414;9.872;2023-08-30T04:41:39;10.39323044;;10.39323044;;;;;;;
71550;SPS30;59367;48.414;9.872;2023-08-30T04:42:45;11.10151005;;11.10151005;;;;;;;
71550;SPS30;59367;48.414;9.872;2023-08-30T04:43:51;10.04794502;;10.04794502;;;;;;;
71550;SPS30;59367;48.414;9.872;2023-08-30T04:44:57;9.274965286;;9.274965286;;;;;;;
71550;SPS30;59367;48.414;9.872;2023-08-30T04:46:02;10.39079666;;10.39079666;;;;;;;
71550;SPS30;59367;48.414;9.872;2023-08-30T04:47:08;12.20910072;;12.20910072;;;;;;;
71550;SPS30;59367;48.414;9.872;2023-08-30T04:48:14;10.76566887;;10.76136208;;;;;;;
71550;SPS30;59367;48.414;9.872;2023-08-30T04:49:20;10.09564972;;10.09564972;;;;;;;
71550;SPS30;59367;48.414;9.872;2023-08-30T04:50:26;10.55789948;;10.55789948;;;;;;;
71550;SPS30;59367;48.414;9.872;2023-08-30T04:51:32;10.41161537;;10.41161537;;;;;;;
71550;SPS30;59367;48.414;9.872;2023-08-30T04:52:38;10.3550148;;10.3550148;;;;;;;
71550;SPS30;59367;48.414;9.872;2023-08-30T04:53:44;10.57036304;;10.57036304;;;;;;;
71550;SPS30;59367;48.414;9.872;2023-08-30T04:54:50;10.40876007;;10.40876007;;;;;;;
71550;SPS30;59367;48.414;9.872;2023-08-30T04:55:56;10.62296581;;10.62296581;;;;;;;
71550;SPS30;59367;48.414;9.872;2023-08-30T04:57:02;9.913956642;;9.913956642;;;;;;;
71550;SPS30;59367;48.414;9.872;2023-08-30T04:58:08;9.838415146;;9.838415146;;;;;;;
71550;SPS30;59367;48.414;9.872;2023-08-30T04:59:14;10.52750492;;10.52750492;;;;;;;
71550;SPS30;59367;48.414;9.872;2023-08-30T05:00:20;9.992588997;;9.992588997;;;;;;;
71550;SPS30;59367;48.414;9.872;2023-08-30T05:01:26;11.15662766;;11.03278828;;;;;;;
71550;SPS30;59367;48.414;9.872;2023-08-30T05:02:32;10.69687176;;10.69614697;;;;;;;
71550;SPS30;59367;48.414;9.872;2023-08-30T05:03:38;10.32515907;;10.32494831;;;;;;;
71550;SPS30;59367;48.414;9.872;2023-08-30T05:04:44;12.11913776;;12.11837101;;;;;;;
71550;SPS30;59367;48.414;9.872;2023-08-30T05:05:50;11.42773628;;11.42772198;;;;;;;
71550;SPS30;59367;48.414;9.872;2023-08-30T05:06:55;10.47612572;;10.47612572;;;;;;;
71550;SPS30;59367;48.414;9.872;2023-08-30T05:08:01;10.16398811;;10.16398811;;;;;;;
71550;SPS30;59367;48.414;9.872;2023-08-30T05:09:07;9.836503029;;9.836503029;;;;;;;
71550;SPS30;59367;48.414;9.872;2023-08-30T05:10:13;10.70762348;;10.70762348;;;;;;;
71550;SPS30;59367;48.414;9.872;2023-08-30T05:11:19;9.569134712;;9.566375732;;;;;;;
71550;SPS30;59367;48.414;9.872;2023-08-30T05:12:25;9.999219894;;9.999219894;;;;;;;
71550;SPS30;59367;48.414;9.872;2023-08-30T05:13:31;10.69264603;;10.69264603;;;;;;;
71550;SPS30;59367;48.414;9.872;2023-08-30T05:14:37;9.848165512;;9.848165512;;;;;;;
71550;SPS30;59367;48.414;9.872;2023-08-30T05:15:42;9.946224213;;9.946224213;;;;;;;
71550;SPS30;59367;48.414;9.872;2023-08-30T05:16:48;9.560770988;;9.560770988;;;;;;;
71550;SPS30;59367;48.414;9.872;2023-08-30T05:17:55;10.35270691;;10.35270691;;;;;;;
71550;SPS30;59367;48.414;9.872;2023-08-30T05:19:01;9.917024612;;9.917024612;;;;;;;